sensor_id;sensor_type;location;lat;lon;timestamp;temperature;humidity
38380;DHT22;38377;47.418;18.882;2023-04-24T00:00:42;13.90;78.40
38380;DHT22;38377;47.418;18.882;2023-04-24T00:03:07;13.80;78.50
38380;DHT22;38377;47.418;18.882;2023-04-24T00:05:33;13.80;78.90
38380;DHT22;38377;47.418;18.882;2023-04-24T00:07:59;13.80;78.90
38380;DHT22;38377;47.418;18.882;2023-04-24T00:10:25;13.80;79.00
38380;DHT22;38377;47.418;18.882;2023-04-24T00:12:51;13.80;80.50
38380;DHT22;38377;47.418;18.882;2023-04-24T00:15:16;13.70;82.10
38380;DHT22;38377;47.418;18.882;2023-04-24T00:17:42;13.60;83.00
38380;DHT22;38377;47.418;18.882;2023-04-24T00:20:08;13.50;84.00
38380;DHT22;38377;47.418;18.882;2023-04-24T00:22:35;13.40;86.20
38380;DHT22;38377;47.418;18.882;2023-04-24T00:25:01;13.30;87.20
38380;DHT22;38377;47.418;18.882;2023-04-24T00:27:27;13.20;84.90
38380;DHT22;38377;47.418;18.882;2023-04-24T00:29:52;13.20;85.50
38380;DHT22;38377;47.418;18.882;2023-04-24T00:32:18;13.20;85.30
38380;DHT22;38377;47.418;18.882;2023-04-24T00:34:44;13.10;85.50
38380;DHT22;38377;47.418;18.882;2023-04-24T00:37:10;13.10;84.80
38380;DHT22;38377;47.418;18.882;2023-04-24T00:39:37;13.00;86.30
38380;DHT22;38377;47.418;18.882;2023-04-24T00:42:03;13.00;85.70
38380;DHT22;38377;47.418;18.882;2023-04-24T00:44:31;13.00;85.20
38380;DHT22;38377;47.418;18.882;2023-04-24T00:46:58;13.00;85.30
38380;DHT22;38377;47.418;18.882;2023-04-24T00:49:24;13.00;86.30
38380;DHT22;38377;47.418;18.882;2023-04-24T00:51:50;13.00;86.80
38380;DHT22;38377;47.418;18.882;2023-04-24T00:54:17;13.00;86.10
38380;DHT22;38377;47.418;18.882;2023-04-24T00:56:44;13.00;85.80
38380;DHT22;38377;47.418;18.882;2023-04-24T00:59:12;13.00;86.10
38380;DHT22;38377;47.418;18.882;2023-04-24T01:01:38;12.90;86.00
38380;DHT22;38377;47.418;18.882;2023-04-24T01:04:07;13.00;86.40
38380;DHT22;38377;47.418;18.882;2023-04-24T01:06:38;13.00;86.00
38380;DHT22;38377;47.418;18.882;2023-04-24T01:09:05;13.00;85.90
38380;DHT22;38377;47.418;18.882;2023-04-24T01:11:33;13.00;86.60
38380;DHT22;38377;47.418;18.882;2023-04-24T01:13:59;12.90;87.20
38380;DHT22;38377;47.418;18.882;2023-04-24T01:16:25;13.00;86.70
38380;DHT22;38377;47.418;18.882;2023-04-24T01:18:51;12.90;87.90
38380;DHT22;38377;47.418;18.882;2023-04-24T01:21:18;12.90;88.90
38380;DHT22;38377;47.418;18.882;2023-04-24T01:23:45;12.80;90.40
38380;DHT22;38377;47.418;18.882;2023-04-24T01:26:13;12.70;90.80
38380;DHT22;38377;47.418;18.882;2023-04-24T01:28:39;12.70;91.30
38380;DHT22;38377;47.418;18.882;2023-04-24T01:34:17;12.70;92.50
38380;DHT22;38377;47.418;18.882;2023-04-24T01:36:45;12.60;93.60
38380;DHT22;38377;47.418;18.882;2023-04-24T01:39:11;12.60;94.60
38380;DHT22;38377;47.418;18.882;2023-04-24T01:41:37;12.50;95.00
38380;DHT22;38377;47.418;18.882;2023-04-24T01:44:03;12.50;95.80
38380;DHT22;38377;47.418;18.882;2023-04-24T01:46:29;12.50;96.70
38380;DHT22;38377;47.418;18.882;2023-04-24T01:48:58;12.50;97.20
38380;DHT22;38377;47.418;18.882;2023-04-24T01:51:25;12.40;97.70
38380;DHT22;38377;47.418;18.882;2023-04-24T01:53:50;12.40;98.80
38380;DHT22;38377;47.418;18.882;2023-04-24T01:56:16;12.30;99.50
38380;DHT22;38377;47.418;18.882;2023-04-24T01:58:43;12.40;99.90
38380;DHT22;38377;47.418;18.882;2023-04-24T02:01:09;12.30;99.90
38380;DHT22;38377;47.418;18.882;2023-04-24T02:03:40;12.30;99.90
38380;DHT22;38377;47.418;18.882;2023-04-24T02:06:06;12.30;99.90
38380;DHT22;38377;47.418;18.882;2023-04-24T02:08:32;12.30;99.90
38380;DHT22;38377;47.418;18.882;2023-04-24T02:10:57;12.30;99.90
38380;DHT22;38377;47.418;18.882;2023-04-24T02:13:23;12.30;99.90
38380;DHT22;38377;47.418;18.882;2023-04-24T02:15:48;12.40;99.90
38380;DHT22;38377;47.418;18.882;2023-04-24T02:18:14;12.40;99.90
38380;DHT22;38377;47.418;18.882;2023-04-24T02:20:40;12.30;99.90
38380;DHT22;38377;47.418;18.882;2023-04-24T02:23:06;12.30;99.90
38380;DHT22;38377;47.418;18.882;2023-04-24T02:25:33;12.20;99.90
38380;DHT22;38377;47.418;18.882;2023-04-24T02:27:58;12.20;99.90
38380;DHT22;38377;47.418;18.882;2023-04-24T02:30:24;12.30;99.90
38380;DHT22;38377;47.418;18.882;2023-04-24T02:32:50;12.20;99.90
38380;DHT22;38377;47.418;18.882;2023-04-24T02:35:17;12.20;99.90
38380;DHT22;38377;47.418;18.882;2023-04-24T02:37:42;12.20;99.90
38380;DHT22;38377;47.418;18.882;2023-04-24T02:40:08;12.20;99.90
38380;DHT22;38377;47.418;18.882;2023-04-24T02:42:34;12.20;99.90
38380;DHT22;38377;47.418;18.882;2023-04-24T02:45:00;12.20;99.90
38380;DHT22;38377;47.418;18.882;2023-04-24T02:47:26;12.30;99.90
38380;DHT22;38377;47.418;18.882;2023-04-24T02:49:52;12.30;99.90
38380;DHT22;38377;47.418;18.882;2023-04-24T02:52:17;12.30;99.90
38380;DHT22;38377;47.418;18.882;2023-04-24T02:54:43;12.30;99.90
38380;DHT22;38377;47.418;18.882;2023-04-24T02:57:09;12.40;99.90
38380;DHT22;38377;47.418;18.882;2023-04-24T02:59:34;12.40;99.90
38380;DHT22;38377;47.418;18.882;2023-04-24T03:02:00;12.50;99.90
38380;DHT22;38377;47.418;18.882;2023-04-24T03:04:26;12.60;99.90
38380;DHT22;38377;47.418;18.882;2023-04-24T03:06:52;12.60;99.90
38380;DHT22;38377;47.418;18.882;2023-04-24T03:09:23;12.60;99.90
38380;DHT22;38377;47.418;18.882;2023-04-24T03:11:49;12.60;99.90
38380;DHT22;38377;47.418;18.882;2023-04-24T03:14:15;12.60;99.90
38380;DHT22;38377;47.418;18.882;2023-04-24T03:16:41;12.70;99.90
38380;DHT22;38377;47.418;18.882;2023-04-24T03:19:06;12.70;99.90
38380;DHT22;38377;47.418;18.882;2023-04-24T03:21:32;12.70;99.90
38380;DHT22;38377;47.418;18.882;2023-04-24T03:23:58;12.70;99.90
38380;DHT22;38377;47.418;18.882;2023-04-24T03:26:24;12.70;99.90
38380;DHT22;38377;47.418;18.882;2023-04-24T03:28:50;12.80;99.90
38380;DHT22;38377;47.418;18.882;2023-04-24T03:31:16;12.80;99.90
38380;DHT22;38377;47.418;18.882;2023-04-24T03:33:42;12.70;99.90
38380;DHT22;38377;47.418;18.882;2023-04-24T03:36:07;12.70;99.90
38380;DHT22;38377;47.418;18.882;2023-04-24T03:38:33;12.70;99.90
38380;DHT22;38377;47.418;18.882;2023-04-24T03:40:59;12.60;99.90
38380;DHT22;38377;47.418;18.882;2023-04-24T03:43:24;12.60;99.90
38380;DHT22;38377;47.418;18.882;2023-04-24T03:45:52;12.60;99.90
38380;DHT22;38377;47.418;18.882;2023-04-24T03:48:18;12.50;99.90
38380;DHT22;38377;47.418;18.882;2023-04-24T03:50:44;12.50;99.90
38380;DHT22;38377;47.418;18.882;2023-04-24T03:53:09;12.50;99.90
38380;DHT22;38377;47.418;18.882;2023-04-24T03:55:35;12.50;99.90
38380;DHT22;38377;47.418;18.882;2023-04-24T03:58:01;12.50;99.90
38380;DHT22;38377;47.418;18.882;2023-04-24T04:00:27;12.50;99.90
38380;DHT22;38377;47.418;18.882;2023-04-24T04:02:53;12.50;99.90
38380;DHT22;38377;47.418;18.882;2023-04-24T04:05:18;12.50;99.90
38380;DHT22;38377;47.418;18.882;2023-04-24T04:07:44;12.40;99.90
38380;DHT22;38377;47.418;18.882;2023-04-24T04:10:10;12.40;99.90
38380;DHT22;38377;47.418;18.882;2023-04-24T04:12:36;12.30;99.90
38380;DHT22;38377;47.418;18.882;2023-04-24T04:15:01;12.20;99.90
38380;DHT22;38377;47.418;18.882;2023-04-24T04:17:27;12.20;99.90
38380;DHT22;38377;47.418;18.882;2023-04-24T04:19:53;12.10;99.90
38380;DHT22;38377;47.418;18.882;2023-04-24T04:22:18;12.10;99.90
38380;DHT22;38377;47.418;18.882;2023-04-24T04:24:44;12.10;99.90
38380;DHT22;38377;47.418;18.882;2023-04-24T04:27:11;12.10;99.90
38380;DHT22;38377;47.418;18.882;2023-04-24T04:29:37;12.10;99.90
38380;DHT22;38377;47.418;18.882;2023-04-24T04:32:03;12.20;99.90
38380;DHT22;38377;47.418;18.882;2023-04-24T04:34:30;12.20;99.90
38380;DHT22;38377;47.418;18.882;2023-04-24T04:36:57;12.20;99.90
38380;DHT22;38377;47.418;18.882;2023-04-24T04:39:25;12.20;99.90
38380;DHT22;38377;47.418;18.882;2023-04-24T04:41:53;12.20;99.90
38380;DHT22;38377;47.418;18.882;2023-04-24T04:44:19;12.10;99.90
38380;DHT22;38377;47.418;18.882;2023-04-24T04:46:45;12.10;99.90
38380;DHT22;38377;47.418;18.882;2023-04-24T04:49:11;12.10;99.90
38380;DHT22;38377;47.418;18.882;2023-04-24T04:51:37;12.10;99.90
38380;DHT22;38377;47.418;18.882;2023-04-24T04:54:02;12.00;99.90
38380;DHT22;38377;47.418;18.882;2023-04-24T04:56:28;12.00;99.90
38380;DHT22;38377;47.418;18.882;2023-04-24T04:58:54;12.00;99.90
38380;DHT22;38377;47.418;18.882;2023-04-24T05:01:20;12.00;99.90
38380;DHT22;38377;47.418;18.882;2023-04-24T05:03:46;12.10;99.90
38380;DHT22;38377;47.418;18.882;2023-04-24T05:06:12;12.10;99.90
38380;DHT22;38377;47.418;18.882;2023-04-24T05:08:37;12.20;99.90
38380;DHT22;38377;47.418;18.882;2023-04-24T05:11:03;12.20;99.90
38380;DHT22;38377;47.418;18.882;2023-04-24T05:13:29;12.30;99.90
38380;DHT22;38377;47.418;18.882;2023-04-24T05:15:54;12.30;99.90
38380;DHT22;38377;47.418;18.882;2023-04-24T05:18:20;12.30;99.90
38380;DHT22;38377;47.418;18.882;2023-04-24T05:20:46;12.30;99.90
38380;DHT22;38377;47.418;18.882;2023-04-24T05:23:11;12.20;99.90
38380;DHT22;38377;47.418;18.882;2023-04-24T05:25:37;12.30;99.90
38380;DHT22;38377;47.418;18.882;2023-04-24T05:28:04;12.30;99.90
38380;DHT22;38377;47.418;18.882;2023-04-24T05:30:30;12.20;99.90
38380;DHT22;38377;47.418;18.882;2023-04-24T05:32:56;12.30;99.90
38380;DHT22;38377;47.418;18.882;2023-04-24T05:35:21;12.30;99.90
38380;DHT22;38377;47.418;18.882;2023-04-24T05:37:47;12.30;99.90
38380;DHT22;38377;47.418;18.882;2023-04-24T05:40:13;12.30;99.90
38380;DHT22;38377;47.418;18.882;2023-04-24T05:42:38;12.40;99.90
38380;DHT22;38377;47.418;18.882;2023-04-24T05:45:05;12.40;99.90
38380;DHT22;38377;47.418;18.882;2023-04-24T05:47:31;12.50;99.90
38380;DHT22;38377;47.418;18.882;2023-04-24T05:49:56;12.50;99.90
38380;DHT22;38377;47.418;18.882;2023-04-24T05:52:22;12.50;99.90
38380;DHT22;38377;47.418;18.882;2023-04-24T05:54:48;12.50;99.90
38380;DHT22;38377;47.418;18.882;2023-04-24T05:57:14;12.60;99.90
38380;DHT22;38377;47.418;18.882;2023-04-24T05:59:40;12.60;99.90
38380;DHT22;38377;47.418;18.882;2023-04-24T06:02:06;12.70;99.90
38380;DHT22;38377;47.418;18.882;2023-04-24T06:04:32;12.60;99.90
38380;DHT22;38377;47.418;18.882;2023-04-24T06:06:59;12.70;99.90
38380;DHT22;38377;47.418;18.882;2023-04-24T06:09:25;12.50;99.90
38380;DHT22;38377;47.418;18.882;2023-04-24T06:11:51;12.50;99.90
38380;DHT22;38377;47.418;18.882;2023-04-24T06:14:22;12.50;99.90
38380;DHT22;38377;47.418;18.882;2023-04-24T06:16:48;12.50;99.90
38380;DHT22;38377;47.418;18.882;2023-04-24T06:19:14;12.40;99.90
38380;DHT22;38377;47.418;18.882;2023-04-24T06:21:40;12.40;99.90
38380;DHT22;38377;47.418;18.882;2023-04-24T06:24:05;12.40;99.90
38380;DHT22;38377;47.418;18.882;2023-04-24T06:26:31;12.40;99.90
38380;DHT22;38377;47.418;18.882;2023-04-24T06:28:57;12.60;99.90
38380;DHT22;38377;47.418;18.882;2023-04-24T06:31:24;12.70;99.90
38380;DHT22;38377;47.418;18.882;2023-04-24T06:33:50;12.70;99.90
38380;DHT22;38377;47.418;18.882;2023-04-24T06:36:16;12.80;99.90
38380;DHT22;38377;47.418;18.882;2023-04-24T06:38:42;12.80;99.90
38380;DHT22;38377;47.418;18.882;2023-04-24T06:41:08;12.90;99.90
38380;DHT22;38377;47.418;18.882;2023-04-24T06:43:33;13.00;99.90
38380;DHT22;38377;47.418;18.882;2023-04-24T06:46:00;13.00;99.90
38380;DHT22;38377;47.418;18.882;2023-04-24T06:48:26;13.00;99.90
38380;DHT22;38377;47.418;18.882;2023-04-24T06:50:52;13.10;99.90
38380;DHT22;38377;47.418;18.882;2023-04-24T06:53:18;13.20;99.90
38380;DHT22;38377;47.418;18.882;2023-04-24T06:55:44;13.20;99.90
38380;DHT22;38377;47.418;18.882;2023-04-24T06:58:12;13.20;99.90
38380;DHT22;38377;47.418;18.882;2023-04-24T07:00:38;13.30;99.90
38380;DHT22;38377;47.418;18.882;2023-04-24T07:03:04;13.20;99.90
38380;DHT22;38377;47.418;18.882;2023-04-24T07:05:32;13.30;99.90
38380;DHT22;38377;47.418;18.882;2023-04-24T07:08:00;13.30;99.90
38380;DHT22;38377;47.418;18.882;2023-04-24T07:10:27;13.30;99.90
38380;DHT22;38377;47.418;18.882;2023-04-24T07:12:54;13.30;99.90
38380;DHT22;38377;47.418;18.882;2023-04-24T07:15:21;13.40;99.90
38380;DHT22;38377;47.418;18.882;2023-04-24T07:17:47;13.50;99.90
38380;DHT22;38377;47.418;18.882;2023-04-24T07:20:12;13.50;99.90
38380;DHT22;38377;47.418;18.882;2023-04-24T07:22:39;13.50;99.90
38380;DHT22;38377;47.418;18.882;2023-04-24T07:25:06;13.60;99.90
38380;DHT22;38377;47.418;18.882;2023-04-24T07:27:32;13.80;99.90
38380;DHT22;38377;47.418;18.882;2023-04-24T07:29:58;13.90;99.90
38380;DHT22;38377;47.418;18.882;2023-04-24T07:32:24;14.10;99.90
38380;DHT22;38377;47.418;18.882;2023-04-24T07:34:50;14.40;99.90
38380;DHT22;38377;47.418;18.882;2023-04-24T07:37:16;14.30;99.90
38380;DHT22;38377;47.418;18.882;2023-04-24T07:39:43;14.40;99.90
38380;DHT22;38377;47.418;18.882;2023-04-24T07:42:09;14.50;99.90
38380;DHT22;38377;47.418;18.882;2023-04-24T07:44:34;14.90;99.90
38380;DHT22;38377;47.418;18.882;2023-04-24T07:47:01;15.20;99.90
38380;DHT22;38377;47.418;18.882;2023-04-24T07:49:27;15.60;99.90
38380;DHT22;38377;47.418;18.882;2023-04-24T07:51:53;15.90;99.90
38380;DHT22;38377;47.418;18.882;2023-04-24T07:54:19;16.40;99.90
38380;DHT22;38377;47.418;18.882;2023-04-24T07:56:44;16.40;99.90
38380;DHT22;38377;47.418;18.882;2023-04-24T07:59:10;16.10;99.90
38380;DHT22;38377;47.418;18.882;2023-04-24T08:01:36;15.90;99.90
38380;DHT22;38377;47.418;18.882;2023-04-24T08:04:02;16.00;99.90
38380;DHT22;38377;47.418;18.882;2023-04-24T08:06:29;15.90;99.90
38380;DHT22;38377;47.418;18.882;2023-04-24T08:08:59;15.70;99.90
38380;DHT22;38377;47.418;18.882;2023-04-24T08:11:25;15.70;99.90
38380;DHT22;38377;47.418;18.882;2023-04-24T08:13:51;15.60;99.90
38380;DHT22;38377;47.418;18.882;2023-04-24T08:16:17;15.50;99.90
38380;DHT22;38377;47.418;18.882;2023-04-24T08:18:43;15.40;99.90
38380;DHT22;38377;47.418;18.882;2023-04-24T08:21:08;15.40;99.90
38380;DHT22;38377;47.418;18.882;2023-04-24T08:23:34;15.40;99.90
38380;DHT22;38377;47.418;18.882;2023-04-24T08:26:00;15.40;99.90
38380;DHT22;38377;47.418;18.882;2023-04-24T08:28:25;15.50;99.90
38380;DHT22;38377;47.418;18.882;2023-04-24T08:30:52;15.70;99.90
38380;DHT22;38377;47.418;18.882;2023-04-24T08:33:21;16.00;99.90
38380;DHT22;38377;47.418;18.882;2023-04-24T08:35:47;16.40;99.90
38380;DHT22;38377;47.418;18.882;2023-04-24T08:38:16;16.70;99.90
38380;DHT22;38377;47.418;18.882;2023-04-24T08:40:42;17.00;98.40
38380;DHT22;38377;47.418;18.882;2023-04-24T08:43:09;17.40;98.60
38380;DHT22;38377;47.418;18.882;2023-04-24T08:45:35;17.70;98.10
38380;DHT22;38377;47.418;18.882;2023-04-24T08:48:02;17.80;97.00
38380;DHT22;38377;47.418;18.882;2023-04-24T08:50:29;17.70;97.50
38380;DHT22;38377;47.418;18.882;2023-04-24T08:52:56;17.50;97.30
38380;DHT22;38377;47.418;18.882;2023-04-24T08:55:24;17.70;96.60
38380;DHT22;38377;47.418;18.882;2023-04-24T08:57:52;17.80;96.80
38380;DHT22;38377;47.418;18.882;2023-04-24T09:00:21;18.00;96.10
38380;DHT22;38377;47.418;18.882;2023-04-24T09:02:49;17.90;96.40
38380;DHT22;38377;47.418;18.882;2023-04-24T09:05:16;17.60;96.30
38380;DHT22;38377;47.418;18.882;2023-04-24T09:07:49;17.80;97.00
38380;DHT22;38377;47.418;18.882;2023-04-24T09:10:15;18.00;94.80
38380;DHT22;38377;47.418;18.882;2023-04-24T09:12:41;18.40;93.30
38380;DHT22;38377;47.418;18.882;2023-04-24T09:15:09;18.50;93.10
38380;DHT22;38377;47.418;18.882;2023-04-24T09:17:35;18.70;91.90
38380;DHT22;38377;47.418;18.882;2023-04-24T09:20:01;18.80;92.30
38380;DHT22;38377;47.418;18.882;2023-04-24T09:22:30;18.90;92.70
38380;DHT22;38377;47.418;18.882;2023-04-24T09:25:06;18.80;91.50
38380;DHT22;38377;47.418;18.882;2023-04-24T09:27:33;18.50;92.70
38380;DHT22;38377;47.418;18.882;2023-04-24T09:30:00;18.20;93.10
38380;DHT22;38377;47.418;18.882;2023-04-24T09:32:26;18.20;94.00
38380;DHT22;38377;47.418;18.882;2023-04-24T09:35:13;18.00;94.10
38380;DHT22;38377;47.418;18.882;2023-04-24T09:37:41;17.90;93.60
38380;DHT22;38377;47.418;18.882;2023-04-24T09:40:17;18.00;93.40
38380;DHT22;38377;47.418;18.882;2023-04-24T09:42:44;18.20;93.00
38380;DHT22;38377;47.418;18.882;2023-04-24T09:45:11;18.40;92.80
38380;DHT22;38377;47.418;18.882;2023-04-24T09:47:40;18.50;92.40
38380;DHT22;38377;47.418;18.882;2023-04-24T09:50:16;18.60;92.10
38380;DHT22;38377;47.418;18.882;2023-04-24T09:53:05;18.60;91.80
38380;DHT22;38377;47.418;18.882;2023-04-24T09:55:39;18.80;91.40
38380;DHT22;38377;47.418;18.882;2023-04-24T09:58:07;18.70;90.50
38380;DHT22;38377;47.418;18.882;2023-04-24T10:00:33;18.60;92.00
38380;DHT22;38377;47.418;18.882;2023-04-24T10:03:01;18.50;91.30
38380;DHT22;38377;47.418;18.882;2023-04-24T10:05:32;18.60;91.60
38380;DHT22;38377;47.418;18.882;2023-04-24T10:10:39;18.30;91.60
38380;DHT22;38377;47.418;18.882;2023-04-24T10:13:08;17.90;93.10
38380;DHT22;38377;47.418;18.882;2023-04-24T10:15:34;17.80;93.30
38380;DHT22;38377;47.418;18.882;2023-04-24T10:18:01;17.60;93.30
38380;DHT22;38377;47.418;18.882;2023-04-24T10:20:29;17.60;93.60
38380;DHT22;38377;47.418;18.882;2023-04-24T10:22:57;17.60;93.80
38380;DHT22;38377;47.418;18.882;2023-04-24T10:25:25;17.60;93.00
38380;DHT22;38377;47.418;18.882;2023-04-24T10:27:52;17.50;93.10
38380;DHT22;38377;47.418;18.882;2023-04-24T10:30:19;17.50;92.80
38380;DHT22;38377;47.418;18.882;2023-04-24T10:32:45;17.60;92.80
38380;DHT22;38377;47.418;18.882;2023-04-24T10:35:15;17.60;93.20
38380;DHT22;38377;47.418;18.882;2023-04-24T10:37:48;17.50;93.10
38380;DHT22;38377;47.418;18.882;2023-04-24T10:40:18;17.50;93.30
38380;DHT22;38377;47.418;18.882;2023-04-24T10:42:48;17.60;93.50
38380;DHT22;38377;47.418;18.882;2023-04-24T10:45:18;17.60;93.40
38380;DHT22;38377;47.418;18.882;2023-04-24T10:48:03;17.60;93.70
38380;DHT22;38377;47.418;18.882;2023-04-24T10:50:41;17.80;93.50
38380;DHT22;38377;47.418;18.882;2023-04-24T10:53:13;18.00;93.10
38380;DHT22;38377;47.418;18.882;2023-04-24T10:55:43;18.20;93.30
38380;DHT22;38377;47.418;18.882;2023-04-24T10:58:09;18.40;93.10
38380;DHT22;38377;47.418;18.882;2023-04-24T11:00:39;18.80;91.80
38380;DHT22;38377;47.418;18.882;2023-04-24T11:03:12;19.00;90.40
38380;DHT22;38377;47.418;18.882;2023-04-24T11:05:51;19.10;88.90
38380;DHT22;38377;47.418;18.882;2023-04-24T11:08:25;19.00;89.20
38380;DHT22;38377;47.418;18.882;2023-04-24T11:13:22;18.70;87.30
38380;DHT22;38377;47.418;18.882;2023-04-24T11:18:39;18.80;88.20
38380;DHT22;38377;47.418;18.882;2023-04-24T11:21:18;18.80;86.60
38380;DHT22;38377;47.418;18.882;2023-04-24T11:23:45;18.80;86.60
38380;DHT22;38377;47.418;18.882;2023-04-24T11:26:12;18.90;86.60
38380;DHT22;38377;47.418;18.882;2023-04-24T11:28:45;19.20;88.10
38380;DHT22;38377;47.418;18.882;2023-04-24T11:36:34;20.90;80.30
38380;DHT22;38377;47.418;18.882;2023-04-24T11:39:00;20.90;80.90
38380;DHT22;38377;47.418;18.882;2023-04-24T11:41:27;20.90;80.00
38380;DHT22;38377;47.418;18.882;2023-04-24T11:43:54;20.70;78.90
38380;DHT22;38377;47.418;18.882;2023-04-24T11:46:21;20.70;79.40
38380;DHT22;38377;47.418;18.882;2023-04-24T11:48:47;20.50;76.40
38380;DHT22;38377;47.418;18.882;2023-04-24T11:51:13;20.40;77.00
38380;DHT22;38377;47.418;18.882;2023-04-24T11:53:39;20.50;77.90
38380;DHT22;38377;47.418;18.882;2023-04-24T11:56:05;20.60;79.80
38380;DHT22;38377;47.418;18.882;2023-04-24T11:58:41;20.50;77.90
38380;DHT22;38377;47.418;18.882;2023-04-24T12:01:06;20.20;77.30
38380;DHT22;38377;47.418;18.882;2023-04-24T12:03:32;19.90;77.70
38380;DHT22;38377;47.418;18.882;2023-04-24T12:06:11;19.90;80.30
38380;DHT22;38377;47.418;18.882;2023-04-24T12:08:37;19.70;78.90
38380;DHT22;38377;47.418;18.882;2023-04-24T12:11:04;19.40;80.60
38380;DHT22;38377;47.418;18.882;2023-04-24T12:13:33;19.30;81.00
38380;DHT22;38377;47.418;18.882;2023-04-24T12:15:59;19.20;80.80
38380;DHT22;38377;47.418;18.882;2023-04-24T12:18:25;19.30;81.80
38380;DHT22;38377;47.418;18.882;2023-04-24T12:20:51;19.30;80.80
38380;DHT22;38377;47.418;18.882;2023-04-24T12:23:33;19.30;81.30
38380;DHT22;38377;47.418;18.882;2023-04-24T12:26:03;19.30;80.30
38380;DHT22;38377;47.418;18.882;2023-04-24T12:28:35;19.30;80.90
38380;DHT22;38377;47.418;18.882;2023-04-24T12:31:01;19.30;80.10
38380;DHT22;38377;47.418;18.882;2023-04-24T12:33:27;19.40;79.00
38380;DHT22;38377;47.418;18.882;2023-04-24T12:35:53;19.40;81.20
38380;DHT22;38377;47.418;18.882;2023-04-24T12:38:23;19.50;80.60
38380;DHT22;38377;47.418;18.882;2023-04-24T12:41:06;19.50;80.00
38380;DHT22;38377;47.418;18.882;2023-04-24T12:43:32;19.40;79.50
38380;DHT22;38377;47.418;18.882;2023-04-24T12:45:58;19.30;81.60
38380;DHT22;38377;47.418;18.882;2023-04-24T12:48:25;19.10;81.40
38380;DHT22;38377;47.418;18.882;2023-04-24T12:50:51;18.90;81.90
38380;DHT22;38377;47.418;18.882;2023-04-24T12:53:17;18.70;82.60
38380;DHT22;38377;47.418;18.882;2023-04-24T12:55:43;18.60;83.40
38380;DHT22;38377;47.418;18.882;2023-04-24T12:58:10;18.30;85.10
38380;DHT22;38377;47.418;18.882;2023-04-24T13:00:36;18.20;84.70
38380;DHT22;38377;47.418;18.882;2023-04-24T13:03:03;18.10;85.90
38380;DHT22;38377;47.418;18.882;2023-04-24T13:05:28;18.00;86.90
38380;DHT22;38377;47.418;18.882;2023-04-24T13:07:54;17.80;87.50
38380;DHT22;38377;47.418;18.882;2023-04-24T13:10:20;17.80;86.70
38380;DHT22;38377;47.418;18.882;2023-04-24T13:12:45;17.80;88.00
38380;DHT22;38377;47.418;18.882;2023-04-24T13:15:12;17.70;89.20
38380;DHT22;38377;47.418;18.882;2023-04-24T13:17:37;17.40;90.70
38380;DHT22;38377;47.418;18.882;2023-04-24T13:20:04;17.20;91.40
38380;DHT22;38377;47.418;18.882;2023-04-24T13:22:29;16.90;92.40
38380;DHT22;38377;47.418;18.882;2023-04-24T13:24:55;16.70;94.10
38380;DHT22;38377;47.418;18.882;2023-04-24T13:27:21;16.50;94.90
38380;DHT22;38377;47.418;18.882;2023-04-24T13:29:47;16.30;96.30
38380;DHT22;38377;47.418;18.882;2023-04-24T13:32:13;16.00;99.10
38380;DHT22;38377;47.418;18.882;2023-04-24T13:34:39;15.70;99.90
38380;DHT22;38377;47.418;18.882;2023-04-24T13:37:05;15.40;99.90
38380;DHT22;38377;47.418;18.882;2023-04-24T13:39:31;15.20;99.90
38380;DHT22;38377;47.418;18.882;2023-04-24T13:41:57;14.90;99.90
38380;DHT22;38377;47.418;18.882;2023-04-24T13:44:23;14.70;99.90
38380;DHT22;38377;47.418;18.882;2023-04-24T13:46:52;14.60;99.90
38380;DHT22;38377;47.418;18.882;2023-04-24T13:49:19;14.50;99.90
38380;DHT22;38377;47.418;18.882;2023-04-24T13:51:46;14.60;99.90
38380;DHT22;38377;47.418;18.882;2023-04-24T13:54:12;14.60;99.90
38380;DHT22;38377;47.418;18.882;2023-04-24T13:56:41;14.70;99.90
38380;DHT22;38377;47.418;18.882;2023-04-24T13:59:07;14.70;99.90
38380;DHT22;38377;47.418;18.882;2023-04-24T14:01:34;14.70;99.90
38380;DHT22;38377;47.418;18.882;2023-04-24T14:03:59;14.80;99.90
38380;DHT22;38377;47.418;18.882;2023-04-24T14:06:25;14.90;99.90
38380;DHT22;38377;47.418;18.882;2023-04-24T14:08:51;15.10;99.90
38380;DHT22;38377;47.418;18.882;2023-04-24T14:11:18;15.30;99.90
38380;DHT22;38377;47.418;18.882;2023-04-24T14:13:44;15.50;99.90
38380;DHT22;38377;47.418;18.882;2023-04-24T14:16:10;15.60;99.90
38380;DHT22;38377;47.418;18.882;2023-04-24T14:18:36;15.50;99.90
38380;DHT22;38377;47.418;18.882;2023-04-24T14:21:03;15.50;99.90
38380;DHT22;38377;47.418;18.882;2023-04-24T14:23:29;15.30;99.90
38380;DHT22;38377;47.418;18.882;2023-04-24T14:25:55;15.20;99.90
38380;DHT22;38377;47.418;18.882;2023-04-24T14:28:20;15.20;99.90
38380;DHT22;38377;47.418;18.882;2023-04-24T14:30:47;15.20;99.90
38380;DHT22;38377;47.418;18.882;2023-04-24T14:33:13;15.10;99.90
38380;DHT22;38377;47.418;18.882;2023-04-24T14:35:40;15.10;99.90
38380;DHT22;38377;47.418;18.882;2023-04-24T14:38:10;15.00;99.90
38380;DHT22;38377;47.418;18.882;2023-04-24T14:40:36;14.90;99.90
38380;DHT22;38377;47.418;18.882;2023-04-24T14:43:02;14.90;99.90
38380;DHT22;38377;47.418;18.882;2023-04-24T14:45:27;14.90;99.90
38380;DHT22;38377;47.418;18.882;2023-04-24T14:47:54;14.90;99.90
38380;DHT22;38377;47.418;18.882;2023-04-24T14:50:20;15.00;99.90
38380;DHT22;38377;47.418;18.882;2023-04-24T14:52:46;15.10;99.90
38380;DHT22;38377;47.418;18.882;2023-04-24T14:55:12;15.10;99.90
38380;DHT22;38377;47.418;18.882;2023-04-24T14:57:39;15.10;99.90
38380;DHT22;38377;47.418;18.882;2023-04-24T15:00:06;15.10;99.90
38380;DHT22;38377;47.418;18.882;2023-04-24T15:02:34;15.10;99.90
38380;DHT22;38377;47.418;18.882;2023-04-24T15:05:00;15.20;99.90
38380;DHT22;38377;47.418;18.882;2023-04-24T15:07:26;15.10;99.90
38380;DHT22;38377;47.418;18.882;2023-04-24T15:09:52;15.10;99.90
38380;DHT22;38377;47.418;18.882;2023-04-24T15:12:17;15.10;99.90
38380;DHT22;38377;47.418;18.882;2023-04-24T15:14:43;14.90;99.90
38380;DHT22;38377;47.418;18.882;2023-04-24T15:17:09;14.90;99.90
38380;DHT22;38377;47.418;18.882;2023-04-24T15:19:35;14.80;99.90
38380;DHT22;38377;47.418;18.882;2023-04-24T15:22:00;14.80;99.90
38380;DHT22;38377;47.418;18.882;2023-04-24T15:24:28;14.60;99.90
38380;DHT22;38377;47.418;18.882;2023-04-24T15:26:54;14.60;99.90
38380;DHT22;38377;47.418;18.882;2023-04-24T15:29:20;14.50;99.90